createdAt,value
2023-01-13T00:01:49.737Z,100741.82
2023-01-13T00:04:03.201Z,100745.77
2023-01-13T00:06:20.274Z,100745.06
2023-01-13T00:08:33.597Z,100730.13
2023-01-13T00:10:49.576Z,100720.44
2023-01-13T00:13:03.446Z,100719.30
2023-01-13T00:15:19.110Z,100719.85
2023-01-13T00:17:32.606Z,100710.95
2023-01-13T00:19:45.743Z,100703.91
2023-01-13T00:21:58.821Z,100703.86
2023-01-13T00:24:12.639Z,100698.67
2023-01-13T00:26:28.571Z,100692.70
2023-01-13T00:28:42.550Z,100695.42
2023-01-13T00:30:57.389Z,100691.00
2023-01-13T00:33:11.472Z,100697.30
2023-01-13T00:35:24.889Z,100697.73
2023-01-13T00:37:40.615Z,100705.64
2023-01-13T00:39:56.265Z,100701.61
2023-01-13T00:42:26.276Z,100716.00
2023-01-13T00:44:40.623Z,100708.73
2023-01-13T00:46:54.314Z,100705.89
2023-01-13T00:49:07.574Z,100702.43
2023-01-13T00:51:23.701Z,100689.02
2023-01-13T00:53:40.215Z,100682.98
2023-01-13T00:56:01.607Z,100674.92
2023-01-13T00:58:16.253Z,100657.98
2023-01-13T01:00:29.943Z,100653.24
2023-01-13T01:02:43.507Z,100645.40
2023-01-13T01:04:56.836Z,100638.16
2023-01-13T01:07:10.232Z,100635.99
2023-01-13T01:09:23.372Z,100634.30
2023-01-13T01:11:38.957Z,100635.39
2023-01-13T01:13:53.724Z,100634.05
2023-01-13T01:16:10.423Z,100629.11
2023-01-13T01:18:25.160Z,100628.34
2023-01-13T01:20:39.563Z,100631.25
2023-01-13T01:22:53.465Z,100623.66
2023-01-13T01:25:06.639Z,100615.30
2023-01-13T01:27:20.507Z,100612.88
2023-01-13T01:29:34.223Z,100618.20
2023-01-13T01:31:48.757Z,100607.77
2023-01-13T01:34:04.098Z,100594.73
2023-01-13T01:36:19.649Z,100593.13
2023-01-13T01:38:32.275Z,100595.17
2023-01-13T01:40:44.794Z,100601.95
2023-01-13T01:43:15.528Z,100608.71
2023-01-13T01:45:28.913Z,100606.45
2023-01-13T01:47:43.150Z,100602.39
2023-01-13T01:49:56.233Z,100606.73
2023-01-13T01:52:12.158Z,100589.52
2023-01-13T01:54:34.204Z,100593.34
2023-01-13T01:56:54.157Z,100594.38
2023-01-13T01:59:08.511Z,100600.83
2023-01-13T02:01:23.491Z,100605.71
2023-01-13T02:03:39.418Z,100606.19
2023-01-13T02:05:53.260Z,100598.27
2023-01-13T02:08:09.011Z,100595.89
2023-01-13T02:10:27.031Z,100589.59
2023-01-13T02:12:43.187Z,100594.91
2023-01-13T02:14:57.907Z,100589.70
2023-01-13T02:17:30.549Z,100587.31
2023-01-13T02:20:12.387Z,100572.32
2023-01-13T02:22:39.588Z,100569.20
2023-01-13T02:25:14.801Z,100570.01
2023-01-13T02:27:47.444Z,100575.64
2023-01-13T02:30:28.802Z,100571.50
2023-01-13T02:32:49.977Z,100576.60
2023-01-13T02:35:10.404Z,100589.33
2023-01-13T02:37:30.515Z,100590.80
2023-01-13T02:39:52.110Z,100597.29
2023-01-13T02:42:29.086Z,100608.05
2023-01-13T02:44:51.215Z,100622.11
2023-01-13T02:47:09.686Z,100617.73
2023-01-13T02:49:28.753Z,100618.08
2023-01-13T02:51:45.121Z,100629.34
2023-01-13T02:54:02.914Z,100633.85
2023-01-13T02:56:18.329Z,100629.02
2023-01-13T02:58:34.848Z,100630.14
2023-01-13T03:00:49.176Z,100631.59
2023-01-13T03:03:04.264Z,100631.86
2023-01-13T03:05:20.810Z,100637.13
2023-01-13T03:08:04.702Z,100638.56
2023-01-13T03:10:29.595Z,100647.33
2023-01-13T03:12:49.890Z,100640.88
2023-01-13T03:15:10.296Z,100639.68
2023-01-13T03:17:35.440Z,100644.89
2023-01-13T03:19:58.695Z,100642.58
2023-01-13T03:22:23.820Z,100645.98
2023-01-13T03:24:42.316Z,100632.48
2023-01-13T03:27:03.527Z,100609.19
2023-01-13T03:29:24.262Z,100608.73
2023-01-13T03:31:42.755Z,100591.15
2023-01-13T03:34:03.120Z,100583.81
2023-01-13T03:36:19.708Z,100573.23
2023-01-13T03:38:36.812Z,100551.29
2023-01-13T03:40:53.138Z,100542.39
2023-01-13T03:43:29.168Z,100554.08
2023-01-13T03:45:46.641Z,100576.84
2023-01-13T03:48:03.011Z,100592.48
2023-01-13T03:50:22.388Z,100593.65
2023-01-13T03:52:39.435Z,100592.70
2023-01-13T03:54:57.892Z,100597.40
2023-01-13T03:57:13.638Z,100623.73
2023-01-13T03:59:33.536Z,100634.95
2023-01-13T04:01:54.050Z,100631.44
2023-01-13T04:04:16.857Z,100616.77
2023-01-13T04:06:33.669Z,100601.56
2023-01-13T04:08:53.264Z,100583.46
2023-01-13T04:11:14.065Z,100597.70
2023-01-13T04:13:31.980Z,100608.48
2023-01-13T04:15:47.480Z,100600.33
2023-01-13T04:18:13.688Z,100605.20
2023-01-13T04:20:26.968Z,100606.95
2023-01-13T04:22:40.265Z,100611.44
2023-01-13T04:24:54.645Z,100624.04
2023-01-13T04:27:08.416Z,100609.85
2023-01-13T04:29:21.536Z,100605.20
2023-01-13T04:31:35.286Z,100594.29
2023-01-13T04:33:47.983Z,100587.93
2023-01-13T04:36:03.868Z,100611.08
2023-01-13T04:38:17.703Z,100579.77
2023-01-13T04:40:30.247Z,100547.08
2023-01-13T04:42:42.838Z,100527.20
2023-01-13T04:44:55.359Z,100527.05
2023-01-13T04:47:08.461Z,100548.42
2023-01-13T04:49:20.833Z,100541.58
2023-01-13T04:51:35.237Z,100542.46
2023-01-13T04:53:48.865Z,100541.27
2023-01-13T04:56:02.605Z,100530.99
2023-01-13T04:58:16.809Z,100524.23
2023-01-13T05:00:33.112Z,100510.36
2023-01-13T05:02:47.091Z,100503.94
2023-01-13T05:05:00.431Z,100492.06
2023-01-13T05:07:14.601Z,100474.52
2023-01-13T05:09:29.587Z,100444.62
2023-01-13T05:11:59.654Z,100462.80
2023-01-13T05:14:29.982Z,100458.29
2023-01-13T05:16:59.998Z,100462.44
2023-01-13T05:19:14.274Z,100463.55
2023-01-13T05:21:44.910Z,100461.38
2023-01-13T05:24:14.855Z,100458.17
2023-01-13T05:26:28.866Z,100455.70
2023-01-13T05:28:43.184Z,100447.64
2023-01-13T05:30:58.875Z,100459.05
2023-01-13T05:33:12.354Z,100458.20
2023-01-13T05:35:25.339Z,100449.81
2023-01-13T05:37:39.492Z,100459.48
2023-01-13T05:40:10.608Z,100452.61
2023-01-13T05:42:41.225Z,100458.46
2023-01-13T05:44:56.813Z,100462.41
2023-01-13T05:47:11.243Z,100456.72
2023-01-13T05:49:24.457Z,100458.34
2023-01-13T05:51:38.279Z,100457.29
2023-01-13T05:53:52.665Z,100458.17
2023-01-13T05:56:06.772Z,100454.62
2023-01-13T05:58:21.774Z,100445.88
2023-01-13T06:00:34.967Z,100449.52
2023-01-13T06:02:48.214Z,100448.29
2023-01-13T06:05:01.619Z,100445.11
2023-01-13T06:07:17.424Z,100445.42
2023-01-13T06:09:30.773Z,100441.27
2023-01-13T06:11:44.145Z,100437.82
2023-01-13T06:13:57.149Z,100437.80
2023-01-13T06:16:12.164Z,100436.12
2023-01-13T06:18:25.302Z,100432.39
2023-01-13T06:20:38.519Z,100430.94
2023-01-13T06:22:53.795Z,100426.31
2023-01-13T06:25:08.024Z,100431.01
2023-01-13T06:27:21.615Z,100427.88
2023-01-13T06:29:35.584Z,100427.48
2023-01-13T06:31:49.234Z,100431.44
2023-01-13T06:34:05.763Z,100427.20
2023-01-13T06:36:23.385Z,100424.38
2023-01-13T06:38:41.277Z,100420.84
2023-01-13T06:40:55.643Z,100420.30
2023-01-13T06:43:19.009Z,100420.23
2023-01-13T06:45:34.160Z,100412.02
2023-01-13T06:47:47.898Z,100408.73
2023-01-13T06:50:01.061Z,100412.41
2023-01-13T06:52:14.316Z,100406.86
2023-01-13T06:54:28.138Z,100403.85
2023-01-13T06:56:41.569Z,100408.81
2023-01-13T06:58:55.367Z,100410.17
2023-01-13T07:01:08.958Z,100409.18
2023-01-13T07:03:23.927Z,100406.50
2023-01-13T07:05:36.710Z,100412.38
2023-01-13T07:07:50.986Z,100414.58
2023-01-13T07:10:04.958Z,100409.11
2023-01-13T07:12:19.573Z,100401.20
2023-01-13T07:14:49.379Z,100399.56
2023-01-13T07:17:05.157Z,100397.93
2023-01-13T07:19:24.277Z,100387.23
2023-01-13T07:21:39.083Z,100388.13
2023-01-13T07:23:53.661Z,100384.44
2023-01-13T07:26:08.980Z,100389.23
2023-01-13T07:28:23.429Z,100385.94
2023-01-13T07:30:37.443Z,100384.06
2023-01-13T07:32:50.651Z,100379.01
2023-01-13T07:35:06.488Z,100381.39
2023-01-13T07:37:19.714Z,100381.70
2023-01-13T07:39:33.952Z,100385.35
2023-01-13T07:42:04.549Z,100380.54
2023-01-13T07:44:19.287Z,100376.24
2023-01-13T07:46:32.131Z,100375.54
2023-01-13T07:48:47.825Z,100378.11
2023-01-13T07:51:04.555Z,100381.48
2023-01-13T07:53:17.746Z,100385.41
2023-01-13T07:55:31.367Z,100379.53
2023-01-13T07:57:44.912Z,100376.66
2023-01-13T07:59:58.929Z,100378.27
2023-01-13T08:02:13.955Z,100376.27
2023-01-13T08:04:27.689Z,100374.76
2023-01-13T08:06:42.460Z,100377.61
2023-01-13T08:08:54.966Z,100368.61
2023-01-13T08:11:09.869Z,100371.73
2023-01-13T08:13:24.531Z,100368.98
2023-01-13T08:15:39.305Z,100357.19
2023-01-13T08:17:55.136Z,100368.52
2023-01-13T08:20:09.003Z,100362.25
2023-01-13T08:22:21.825Z,100363.50
2023-01-13T08:24:35.585Z,100360.45
2023-01-13T08:26:50.002Z,100360.22
2023-01-13T08:29:03.698Z,100351.90
2023-01-13T08:31:18.527Z,100365.17
2023-01-13T08:33:31.948Z,100362.08
2023-01-13T08:35:46.622Z,100351.81
2023-01-13T08:38:00.829Z,100359.38
2023-01-13T08:40:18.197Z,100358.63
2023-01-13T08:42:30.521Z,100359.98
2023-01-13T08:44:45.215Z,100355.52
2023-01-13T08:47:00.152Z,100355.42
2023-01-13T08:49:13.536Z,100362.71
2023-01-13T08:51:27.484Z,100366.10
2023-01-13T08:53:41.207Z,100361.95
2023-01-13T08:55:54.589Z,100380.64
2023-01-13T08:58:15.920Z,100386.11
2023-01-13T09:00:30.153Z,100390.39
2023-01-13T09:02:43.933Z,100393.81
2023-01-13T09:04:57.411Z,100379.63
2023-01-13T09:07:10.066Z,100396.70
2023-01-13T09:09:24.074Z,100399.71
2023-01-13T09:11:58.255Z,100391.69
2023-01-13T09:14:14.514Z,100392.66
2023-01-13T09:16:28.131Z,100390.09
2023-01-13T09:18:42.609Z,100387.59
2023-01-13T09:20:56.762Z,100400.61
2023-01-13T09:23:11.267Z,100404.25
2023-01-13T09:25:25.730Z,100408.05
2023-01-13T09:27:41.289Z,100409.95
2023-01-13T09:29:55.953Z,100401.39
2023-01-13T09:32:10.960Z,100411.59
2023-01-13T09:34:42.696Z,100416.26
2023-01-13T09:36:57.264Z,100421.90
2023-01-13T09:39:10.917Z,100431.02
2023-01-13T09:41:44.318Z,100431.39
2023-01-13T09:44:02.620Z,100439.39
2023-01-13T09:46:40.723Z,100451.10
2023-01-13T09:48:55.402Z,100444.77
2023-01-13T09:51:15.608Z,100445.75
2023-01-13T09:53:33.713Z,100437.17
2023-01-13T09:55:49.767Z,100443.77
2023-01-13T09:58:04.390Z,100443.37
2023-01-13T10:00:22.400Z,100434.77
2023-01-13T10:02:50.792Z,100431.11
2023-01-13T10:05:20.329Z,100431.97
2023-01-13T10:07:37.687Z,100431.31
2023-01-13T10:09:56.365Z,100433.70
2023-01-13T10:12:31.599Z,100425.21
2023-01-13T10:14:51.758Z,100421.28
2023-01-13T10:17:15.070Z,100423.52
2023-01-13T10:19:35.135Z,100435.40
2023-01-13T10:22:09.441Z,100450.38
2023-01-13T10:24:31.638Z,100453.08
2023-01-13T10:27:00.268Z,100441.05
2023-01-13T10:29:27.974Z,100441.38
2023-01-13T10:31:41.092Z,100443.75
2023-01-13T10:34:00.797Z,100451.98
2023-01-13T10:36:22.488Z,100452.15
2023-01-13T10:38:39.991Z,100450.77
2023-01-13T10:41:00.066Z,100459.33
2023-01-13T10:43:12.720Z,100452.08
2023-01-13T10:45:30.127Z,100458.36
2023-01-13T10:47:43.885Z,100465.31
2023-01-13T10:50:24.432Z,100474.73
2023-01-13T10:52:41.115Z,100486.97
2023-01-13T10:54:58.993Z,100486.38
2023-01-13T10:57:26.173Z,100492.64
2023-01-13T10:59:39.354Z,100492.08
2023-01-13T11:02:04.082Z,100492.49
2023-01-13T11:04:36.840Z,100495.80
2023-01-13T11:06:51.317Z,100488.87
2023-01-13T11:09:05.219Z,100485.58
2023-01-13T11:11:41.335Z,100481.63
2023-01-13T11:14:15.750Z,100482.45
2023-01-13T11:16:30.361Z,100483.70
2023-01-13T11:19:03.375Z,100483.77
2023-01-13T11:21:25.007Z,100482.68
2023-01-13T11:23:43.007Z,100488.70
2023-01-13T11:26:03.706Z,100490.15
2023-01-13T11:28:36.724Z,100494.30
2023-01-13T11:30:53.462Z,100500.95
2023-01-13T11:33:34.294Z,100501.87
2023-01-13T11:35:54.821Z,100494.51
2023-01-13T11:38:17.287Z,100507.58
2023-01-13T11:40:36.047Z,100509.06
2023-01-13T11:42:55.315Z,100493.38
2023-01-13T11:45:19.684Z,100490.46
2023-01-13T11:47:34.987Z,100467.84
2023-01-13T11:49:50.127Z,100462.67
2023-01-13T11:52:14.599Z,100455.58
2023-01-13T11:54:52.804Z,100461.49
2023-01-13T11:57:32.778Z,100457.84
2023-01-13T12:00:17.522Z,100455.81
2023-01-13T12:02:48.572Z,100463.08
2023-01-13T12:05:11.985Z,100467.05
2023-01-13T12:07:40.001Z,100468.30
2023-01-13T12:10:13.434Z,100462.42
2023-01-13T12:12:37.913Z,100465.92
2023-01-13T12:15:07.724Z,100453.83
2023-01-13T12:17:30.648Z,100461.13
2023-01-13T12:19:48.520Z,100457.15
2023-01-13T12:22:12.146Z,100463.56
2023-01-13T12:24:31.837Z,100461.51
2023-01-13T12:26:49.640Z,100470.24
2023-01-13T12:29:06.668Z,100469.16
2023-01-13T12:31:21.817Z,100468.42
2023-01-13T12:33:47.688Z,100470.20
2023-01-13T12:36:11.306Z,100468.55
2023-01-13T12:38:34.370Z,100467.02
2023-01-13T12:40:59.865Z,100453.44
2023-01-13T12:43:35.152Z,100449.80
2023-01-13T12:45:48.394Z,100441.05
2023-01-13T12:48:03.460Z,100447.08
2023-01-13T12:50:46.049Z,100448.52
2023-01-13T12:53:01.091Z,100440.49
2023-01-13T12:55:27.388Z,100437.02
2023-01-13T12:57:42.735Z,100443.47
2023-01-13T13:00:23.664Z,100447.89
2023-01-13T13:02:42.188Z,100442.92
2023-01-13T13:04:57.602Z,100421.63
2023-01-13T13:07:17.648Z,100411.05
2023-01-13T13:09:36.345Z,100422.05
2023-01-13T13:12:08.640Z,100427.21
2023-01-13T13:15:01.143Z,100421.63
2023-01-13T13:18:03.520Z,100415.49
2023-01-13T13:20:55.359Z,100418.65
2023-01-13T13:23:30.793Z,100433.19
2023-01-13T13:26:06.540Z,100438.02
2023-01-13T13:28:34.231Z,100431.67
2023-01-13T13:30:54.795Z,100424.14
2023-01-13T13:33:25.485Z,100421.33
2023-01-13T13:36:04.056Z,100416.48
2023-01-13T13:38:47.921Z,100421.02
2023-01-13T13:41:19.463Z,100422.15
2023-01-13T13:43:52.465Z,100416.46
2023-01-13T13:46:22.879Z,100414.34
2023-01-13T13:48:38.430Z,100410.03
2023-01-13T13:50:59.100Z,100404.23
2023-01-13T13:53:15.538Z,100398.83
2023-01-13T13:55:31.926Z,100390.98
2023-01-13T13:57:47.858Z,100395.06
2023-01-13T14:00:02.420Z,100406.82
2023-01-13T14:02:31.231Z,100414.30
2023-01-13T14:04:47.228Z,100428.02
2023-01-13T14:07:02.218Z,100440.05
2023-01-13T14:09:21.910Z,100456.23
2023-01-13T14:11:37.122Z,100458.13
2023-01-13T14:14:03.818Z,100456.85
2023-01-13T14:16:19.453Z,100454.65
2023-01-13T14:18:35.403Z,100451.59
2023-01-13T14:20:55.295Z,100449.08
2023-01-13T14:23:08.782Z,100443.63
2023-01-13T14:25:35.995Z,100440.75
2023-01-13T14:27:50.802Z,100443.04
2023-01-13T14:30:05.726Z,100439.56
2023-01-13T14:32:23.228Z,100435.88
2023-01-13T14:34:37.310Z,100436.30
2023-01-13T14:36:52.261Z,100426.52
2023-01-13T14:39:38.738Z,100434.81
2023-01-13T14:41:54.057Z,100438.80
2023-01-13T14:44:15.942Z,100442.59
2023-01-13T14:46:40.511Z,100451.06
2023-01-13T14:48:56.138Z,100457.02
2023-01-13T14:51:12.388Z,100461.64
2023-01-13T14:53:41.661Z,100464.46
2023-01-13T14:55:55.338Z,100464.05
2023-01-13T14:58:36.996Z,100471.23
2023-01-13T15:00:49.977Z,100479.52
2023-01-13T15:03:11.492Z,100483.88
2023-01-13T15:05:51.198Z,100480.99
2023-01-13T15:08:07.736Z,100489.99
2023-01-13T15:10:23.825Z,100483.84
2023-01-13T15:12:42.143Z,100488.11
2023-01-13T15:14:57.736Z,100491.98
2023-01-13T15:17:18.952Z,100487.95
2023-01-13T15:19:32.736Z,100483.45
2023-01-13T15:21:46.291Z,100486.52
2023-01-13T15:24:00.913Z,100481.34
2023-01-13T15:26:22.552Z,100476.05
2023-01-13T15:28:34.873Z,100473.33
2023-01-13T15:30:49.314Z,100473.52
2023-01-13T15:33:03.576Z,100472.47
2023-01-13T15:35:20.117Z,100480.16
2023-01-13T15:37:33.189Z,100485.48
2023-01-13T15:39:47.269Z,100486.56
2023-01-13T15:42:18.073Z,100483.55
2023-01-13T15:44:49.757Z,100484.84
2023-01-13T15:47:05.843Z,100492.69
2023-01-13T15:49:26.391Z,100480.56
2023-01-13T15:51:40.142Z,100488.53
2023-01-13T15:53:54.008Z,100500.33
2023-01-13T15:56:08.505Z,100502.88
2023-01-13T15:58:28.357Z,100496.84
2023-01-13T16:00:41.923Z,100498.56
2023-01-13T16:02:55.389Z,100495.93
2023-01-13T16:05:08.336Z,100500.06
2023-01-13T16:07:24.825Z,100498.33
2023-01-13T16:09:37.691Z,100497.08
2023-01-13T16:11:51.331Z,100495.64
2023-01-13T16:14:06.531Z,100502.23
2023-01-13T16:16:24.976Z,100510.29
2023-01-13T16:18:39.286Z,100512.15
2023-01-13T16:20:53.931Z,100516.06
2023-01-13T16:23:06.909Z,100509.90
2023-01-13T16:25:24.691Z,100512.04
2023-01-13T16:27:37.220Z,100507.70
2023-01-13T16:29:50.200Z,100507.95
2023-01-13T16:32:02.983Z,100509.27
2023-01-13T16:34:15.373Z,100508.79
2023-01-13T16:36:30.020Z,100510.40
2023-01-13T16:38:44.555Z,100516.98
2023-01-13T16:41:00.286Z,100532.52
2023-01-13T16:43:15.611Z,100539.28
2023-01-13T16:45:30.238Z,100545.92
2023-01-13T16:47:45.387Z,100547.41
2023-01-13T16:49:58.319Z,100545.82
2023-01-13T16:52:11.992Z,100546.17
2023-01-13T16:54:25.955Z,100546.04
2023-01-13T16:56:39.690Z,100544.52
2023-01-13T16:58:53.363Z,100542.95
2023-01-13T17:01:09.360Z,100544.06
2023-01-13T17:03:23.129Z,100544.97
2023-01-13T17:05:40.378Z,100539.89
2023-01-13T17:07:54.088Z,100538.31
2023-01-13T17:10:07.639Z,100541.20
2023-01-13T17:12:23.086Z,100532.49
2023-01-13T17:14:36.136Z,100528.04
2023-01-13T17:16:50.842Z,100536.65
2023-01-13T17:19:03.978Z,100530.54
2023-01-13T17:21:16.468Z,100535.27
2023-01-13T17:23:30.841Z,100526.02
2023-01-13T17:25:46.215Z,100528.27
2023-01-13T17:27:59.418Z,100526.94
2023-01-13T17:30:16.214Z,100525.96
2023-01-13T17:32:28.783Z,100524.38
2023-01-13T17:34:43.602Z,100527.71
2023-01-13T17:36:57.467Z,100525.38
2023-01-13T17:39:11.171Z,100526.71
2023-01-13T17:41:24.935Z,100533.90
2023-01-13T17:43:37.365Z,100544.78
2023-01-13T17:45:51.583Z,100540.34
2023-01-13T17:48:04.773Z,100552.42
2023-01-13T17:50:17.934Z,100548.31
2023-01-13T17:52:31.821Z,100543.29
2023-01-13T17:54:46.375Z,100541.04
2023-01-13T17:57:00.653Z,100539.33
2023-01-13T17:59:15.501Z,100533.69
2023-01-13T18:01:31.869Z,100529.63
2023-01-13T18:03:45.623Z,100533.33
2023-01-13T18:06:05.217Z,100536.56
2023-01-13T18:08:19.306Z,100539.81
2023-01-13T18:10:32.279Z,100543.88
2023-01-13T18:12:45.522Z,100540.65
2023-01-13T18:14:59.034Z,100538.65
2023-01-13T18:17:12.482Z,100533.96
2023-01-13T18:19:43.397Z,100536.98
2023-01-13T18:22:13.285Z,100529.65
2023-01-13T18:24:44.057Z,100525.04
2023-01-13T18:27:29.928Z,100527.82
2023-01-13T18:29:43.827Z,100530.81
2023-01-13T18:31:57.186Z,100530.83
2023-01-13T18:34:11.027Z,100523.98
2023-01-13T18:36:24.515Z,100526.83
2023-01-13T18:38:39.949Z,100523.86
2023-01-13T18:40:53.253Z,100516.64
2023-01-13T18:43:07.508Z,100516.13
2023-01-13T18:45:21.470Z,100521.50
2023-01-13T18:47:35.466Z,100515.85
2023-01-13T18:49:48.852Z,100518.84
2023-01-13T18:52:02.750Z,100512.78
2023-01-13T18:54:16.385Z,100503.27
2023-01-13T18:56:30.265Z,100501.98
2023-01-13T18:58:52.519Z,100501.59
2023-01-13T19:01:11.249Z,100500.89
2023-01-13T19:03:30.118Z,100500.48
2023-01-13T19:05:45.192Z,100497.34
2023-01-13T19:07:58.861Z,100495.13
2023-01-13T19:10:14.133Z,100493.94
2023-01-13T19:12:28.805Z,100491.41
2023-01-13T19:14:43.508Z,100491.36
2023-01-13T19:16:58.996Z,100494.14
2023-01-13T19:19:12.359Z,100491.00
2023-01-13T19:21:25.545Z,100483.14
2023-01-13T19:23:39.452Z,100484.64
2023-01-13T19:25:56.469Z,100486.27
2023-01-13T19:28:09.646Z,100485.25
2023-01-13T19:30:24.231Z,100479.98
2023-01-13T19:32:39.803Z,100496.73
2023-01-13T19:34:56.077Z,100494.33
2023-01-13T19:37:11.183Z,100485.36
2023-01-13T19:39:25.919Z,100474.89
2023-01-13T19:41:56.894Z,100472.38
2023-01-13T19:44:29.043Z,100480.02
2023-01-13T19:46:40.874Z,100471.58
2023-01-13T19:48:54.224Z,100477.15
2023-01-13T19:51:08.048Z,100475.11
2023-01-13T19:53:23.566Z,100467.42
2023-01-13T19:55:38.652Z,100464.73
2023-01-13T19:57:51.970Z,100463.33
2023-01-13T20:00:05.391Z,100454.77
2023-01-13T20:02:32.449Z,100456.16
2023-01-13T20:04:47.943Z,100450.94
2023-01-13T20:07:01.598Z,100448.23
2023-01-13T20:09:15.314Z,100445.91
2023-01-13T20:11:32.407Z,100443.21
2023-01-13T20:13:46.553Z,100428.13
2023-01-13T20:16:00.713Z,100430.25
2023-01-13T20:18:15.242Z,100428.92
2023-01-13T20:20:28.877Z,100429.86
2023-01-13T20:22:43.305Z,100422.50
2023-01-13T20:24:56.209Z,100417.66
2023-01-13T20:27:09.652Z,100414.64
2023-01-13T20:29:23.209Z,100410.52
2023-01-13T20:31:36.595Z,100409.57
2023-01-13T20:33:51.816Z,100409.41
2023-01-13T20:36:05.181Z,100407.84
2023-01-13T20:38:18.863Z,100407.64
2023-01-13T20:40:32.060Z,100406.27
2023-01-13T20:42:47.631Z,100415.27
2023-01-13T20:45:01.174Z,100419.14
2023-01-13T20:47:14.716Z,100414.58
2023-01-13T20:49:31.280Z,100412.27
2023-01-13T20:51:44.832Z,100410.94
2023-01-13T20:53:59.113Z,100412.31
2023-01-13T20:56:15.227Z,100409.38
2023-01-13T20:58:29.487Z,100408.67
2023-01-13T21:00:42.620Z,100403.89
2023-01-13T21:02:56.433Z,100398.23
2023-01-13T21:05:10.120Z,100395.13
2023-01-13T21:07:23.657Z,100393.44
2023-01-13T21:09:38.155Z,100388.11
2023-01-13T21:12:11.838Z,100384.91
2023-01-13T21:14:43.818Z,100381.39
2023-01-13T21:16:58.145Z,100378.20
2023-01-13T21:19:11.863Z,100372.27
2023-01-13T21:21:25.113Z,100375.23
2023-01-13T21:23:38.298Z,100377.00
2023-01-13T21:25:52.452Z,100368.71
2023-01-13T21:28:09.359Z,100366.27
2023-01-13T21:30:24.336Z,100367.73
2023-01-13T21:32:38.218Z,100373.13
2023-01-13T21:34:51.329Z,100369.94
2023-01-13T21:37:06.970Z,100363.74
2023-01-13T21:39:21.023Z,100363.86
2023-01-13T21:41:51.570Z,100368.95
2023-01-13T21:44:21.945Z,100362.42
2023-01-13T21:46:52.591Z,100354.13
2023-01-13T21:49:07.433Z,100349.37
2023-01-13T21:51:20.648Z,100345.77
2023-01-13T21:53:35.434Z,100338.68
2023-01-13T21:55:53.685Z,100338.64
2023-01-13T21:58:13.956Z,100342.13
2023-01-13T22:00:33.891Z,100338.84
2023-01-13T22:02:49.149Z,100333.01
2023-01-13T22:05:02.383Z,100329.80
2023-01-13T22:07:15.485Z,100324.73
2023-01-13T22:09:29.792Z,100325.75
2023-01-13T22:11:43.556Z,100321.95
2023-01-13T22:14:11.824Z,100319.09
2023-01-13T22:16:25.728Z,100320.27
2023-01-13T22:18:39.604Z,100323.64
2023-01-13T22:20:54.565Z,100320.19
2023-01-13T22:23:08.174Z,100322.36
2023-01-13T22:25:23.348Z,100321.91
2023-01-13T22:27:40.694Z,100321.00
2023-01-13T22:29:55.184Z,100323.08
2023-01-13T22:32:09.749Z,100323.29
2023-01-13T22:34:23.549Z,100318.45
2023-01-13T22:36:37.006Z,100316.61
2023-01-13T22:38:50.819Z,100314.73
2023-01-13T22:41:07.648Z,100317.85
2023-01-13T22:43:22.472Z,100316.48
2023-01-13T22:45:36.283Z,100320.46
2023-01-13T22:47:50.904Z,100312.57
2023-01-13T22:50:04.940Z,100313.00
2023-01-13T22:52:19.677Z,100312.15
2023-01-13T22:54:34.384Z,100309.91
2023-01-13T22:56:48.167Z,100314.74
2023-01-13T22:59:06.232Z,100312.39
2023-01-13T23:01:23.516Z,100311.69
2023-01-13T23:03:39.453Z,100313.81
2023-01-13T23:05:58.369Z,100309.11
2023-01-13T23:08:12.660Z,100306.90
2023-01-13T23:10:26.152Z,100303.91
2023-01-13T23:12:39.759Z,100302.30
2023-01-13T23:14:53.680Z,100303.55
2023-01-13T23:17:08.688Z,100294.31
2023-01-13T23:19:22.220Z,100295.41
2023-01-13T23:21:37.982Z,100296.73
2023-01-13T23:23:51.513Z,100297.96
2023-01-13T23:26:05.747Z,100294.27
2023-01-13T23:28:19.441Z,100289.78
2023-01-13T23:30:33.336Z,100290.33
2023-01-13T23:32:47.085Z,100297.70
2023-01-13T23:35:00.308Z,100296.20
2023-01-13T23:37:15.100Z,100293.33
2023-01-13T23:39:28.032Z,100295.69
2023-01-13T23:41:41.110Z,100294.34
2023-01-13T23:43:59.353Z,100299.27
2023-01-13T23:46:14.823Z,100302.86
2023-01-13T23:48:28.431Z,100303.63
2023-01-13T23:50:41.961Z,100301.38
2023-01-13T23:52:55.808Z,100306.98
2023-01-13T23:55:09.569Z,100303.29
2023-01-13T23:57:23.133Z,100302.19
2023-01-13T23:59:37.147Z,100301.03
